sensor_id;sensor_type;location;lat;lon;timestamp;temperature;humidity
67273;DHT22;54190;49.770;9.250;2022-12-18T00:00:47;-8.30;99.90
67273;DHT22;54190;49.770;9.250;2022-12-18T00:03:14;-8.30;99.90
67273;DHT22;54190;49.770;9.250;2022-12-18T00:05:50;-8.40;99.90
67273;DHT22;54190;49.770;9.250;2022-12-18T00:08:17;-8.30;99.90
67273;DHT22;54190;49.770;9.250;2022-12-18T00:10:44;-8.30;99.90
67273;DHT22;54190;49.770;9.250;2022-12-18T00:13:10;-8.40;99.90
67273;DHT22;54190;49.770;9.250;2022-12-18T00:15:37;-8.50;99.90
67273;DHT22;54190;49.770;9.250;2022-12-18T00:18:03;-8.50;99.90
67273;DHT22;54190;49.770;9.250;2022-12-18T00:20:29;-8.50;99.90
67273;DHT22;54190;49.770;9.250;2022-12-18T00:22:55;-8.60;99.90
67273;DHT22;54190;49.770;9.250;2022-12-18T00:25:21;-8.70;99.90
67273;DHT22;54190;49.770;9.250;2022-12-18T00:27:47;-8.70;99.90
67273;DHT22;54190;49.770;9.250;2022-12-18T00:30:13;-8.70;99.90
67273;DHT22;54190;49.770;9.250;2022-12-18T00:32:39;-8.70;99.90
67273;DHT22;54190;49.770;9.250;2022-12-18T00:35:06;-8.80;99.90
67273;DHT22;54190;49.770;9.250;2022-12-18T00:37:33;-8.90;99.90
67273;DHT22;54190;49.770;9.250;2022-12-18T00:39:59;-8.90;99.90
67273;DHT22;54190;49.770;9.250;2022-12-18T00:42:25;-8.90;99.90
67273;DHT22;54190;49.770;9.250;2022-12-18T00:45:09;-8.90;99.90
67273;DHT22;54190;49.770;9.250;2022-12-18T00:47:35;-8.90;99.90
67273;DHT22;54190;49.770;9.250;2022-12-18T00:50:01;-8.80;99.90
67273;DHT22;54190;49.770;9.250;2022-12-18T00:52:26;-8.80;99.90
67273;DHT22;54190;49.770;9.250;2022-12-18T00:54:52;-8.70;99.90
67273;DHT22;54190;49.770;9.250;2022-12-18T00:57:18;-8.70;99.90
67273;DHT22;54190;49.770;9.250;2022-12-18T00:59:43;-8.60;99.90
67273;DHT22;54190;49.770;9.250;2022-12-18T01:02:10;-8.70;99.90
67273;DHT22;54190;49.770;9.250;2022-12-18T01:04:36;-8.70;99.90
67273;DHT22;54190;49.770;9.250;2022-12-18T01:07:02;-8.70;99.90
67273;DHT22;54190;49.770;9.250;2022-12-18T01:09:27;-8.70;99.90
67273;DHT22;54190;49.770;9.250;2022-12-18T01:11:53;-8.70;99.90
67273;DHT22;54190;49.770;9.250;2022-12-18T01:14:18;-8.80;99.90
67273;DHT22;54190;49.770;9.250;2022-12-18T01:16:44;-8.80;99.90
67273;DHT22;54190;49.770;9.250;2022-12-18T01:19:10;-8.90;99.90
67273;DHT22;54190;49.770;9.250;2022-12-18T01:21:36;-9.00;99.90
67273;DHT22;54190;49.770;9.250;2022-12-18T01:24:03;-9.00;99.90
67273;DHT22;54190;49.770;9.250;2022-12-18T01:26:29;-9.00;99.90
67273;DHT22;54190;49.770;9.250;2022-12-18T01:28:56;-9.00;99.90
67273;DHT22;54190;49.770;9.250;2022-12-18T01:31:26;-9.00;99.90
67273;DHT22;54190;49.770;9.250;2022-12-18T01:33:54;-8.90;99.90
67273;DHT22;54190;49.770;9.250;2022-12-18T01:36:23;-8.90;99.90
67273;DHT22;54190;49.770;9.250;2022-12-18T01:38:51;-9.00;99.90
67273;DHT22;54190;49.770;9.250;2022-12-18T01:41:22;-9.00;99.90
67273;DHT22;54190;49.770;9.250;2022-12-18T01:43:56;-8.90;99.90
67273;DHT22;54190;49.770;9.250;2022-12-18T01:46:23;-9.00;99.90
67273;DHT22;54190;49.770;9.250;2022-12-18T01:48:53;-9.00;99.90
67273;DHT22;54190;49.770;9.250;2022-12-18T01:51:21;-9.00;99.90
67273;DHT22;54190;49.770;9.250;2022-12-18T01:53:47;-9.10;99.90
67273;DHT22;54190;49.770;9.250;2022-12-18T01:56:15;-9.10;99.90
67273;DHT22;54190;49.770;9.250;2022-12-18T01:59:00;-9.00;99.90
67273;DHT22;54190;49.770;9.250;2022-12-18T02:01:26;-8.90;99.90
67273;DHT22;54190;49.770;9.250;2022-12-18T02:03:52;-8.80;99.90
67273;DHT22;54190;49.770;9.250;2022-12-18T02:06:37;-8.80;99.90
67273;DHT22;54190;49.770;9.250;2022-12-18T02:09:11;-8.70;99.90
67273;DHT22;54190;49.770;9.250;2022-12-18T02:11:49;-8.60;99.90
67273;DHT22;54190;49.770;9.250;2022-12-18T02:14:30;-8.60;99.90
67273;DHT22;54190;49.770;9.250;2022-12-18T02:17:18;-8.60;99.90
67273;DHT22;54190;49.770;9.250;2022-12-18T02:22:44;-8.70;99.90
67273;DHT22;54190;49.770;9.250;2022-12-18T02:28:19;-8.80;99.90
67273;DHT22;54190;49.770;9.250;2022-12-18T02:30:48;-8.70;99.90
67273;DHT22;54190;49.770;9.250;2022-12-18T02:33:14;-8.70;99.90
67273;DHT22;54190;49.770;9.250;2022-12-18T02:35:42;-8.70;99.90
67273;DHT22;54190;49.770;9.250;2022-12-18T02:38:12;-8.60;99.90
67273;DHT22;54190;49.770;9.250;2022-12-18T02:40:39;-8.70;99.90
67273;DHT22;54190;49.770;9.250;2022-12-18T02:43:10;-8.80;99.90
67273;DHT22;54190;49.770;9.250;2022-12-18T02:45:47;-8.80;99.90
67273;DHT22;54190;49.770;9.250;2022-12-18T02:48:14;-8.80;99.90
67273;DHT22;54190;49.770;9.250;2022-12-18T02:50:46;-8.80;99.90
67273;DHT22;54190;49.770;9.250;2022-12-18T02:53:28;-8.80;99.90
67273;DHT22;54190;49.770;9.250;2022-12-18T02:56:19;-8.80;99.90
67273;DHT22;54190;49.770;9.250;2022-12-18T02:59:00;-8.90;99.90
67273;DHT22;54190;49.770;9.250;2022-12-18T03:01:51;-8.90;99.90
67273;DHT22;54190;49.770;9.250;2022-12-18T03:04:30;-8.80;99.90
67273;DHT22;54190;49.770;9.250;2022-12-18T03:07:01;-8.80;99.90
67273;DHT22;54190;49.770;9.250;2022-12-18T03:09:34;-8.70;99.90
67273;DHT22;54190;49.770;9.250;2022-12-18T03:12:06;-8.70;99.90
67273;DHT22;54190;49.770;9.250;2022-12-18T03:15:04;-8.60;99.90
67273;DHT22;54190;49.770;9.250;2022-12-18T03:17:35;-8.50;99.90
67273;DHT22;54190;49.770;9.250;2022-12-18T03:20:18;-8.50;99.90
67273;DHT22;54190;49.770;9.250;2022-12-18T03:22:47;-8.50;99.90
67273;DHT22;54190;49.770;9.250;2022-12-18T03:25:16;-8.40;99.90
67273;DHT22;54190;49.770;9.250;2022-12-18T03:27:47;-8.50;99.90
67273;DHT22;54190;49.770;9.250;2022-12-18T03:30:16;-8.40;99.90
67273;DHT22;54190;49.770;9.250;2022-12-18T03:35:15;-8.40;99.90
67273;DHT22;54190;49.770;9.250;2022-12-18T03:37:42;-8.40;99.90
67273;DHT22;54190;49.770;9.250;2022-12-18T03:40:08;-8.40;99.90
67273;DHT22;54190;49.770;9.250;2022-12-18T03:47:58;-8.50;99.90
67273;DHT22;54190;49.770;9.250;2022-12-18T03:55:47;-8.70;99.90
67273;DHT22;54190;49.770;9.250;2022-12-18T03:58:17;-8.70;99.90
67273;DHT22;54190;49.770;9.250;2022-12-18T04:00:56;-8.70;99.90
67273;DHT22;54190;49.770;9.250;2022-12-18T04:03:26;-8.70;99.90
67273;DHT22;54190;49.770;9.250;2022-12-18T04:05:54;-8.70;99.90
67273;DHT22;54190;49.770;9.250;2022-12-18T04:08:22;-8.70;99.90
67273;DHT22;54190;49.770;9.250;2022-12-18T04:10:59;-8.80;99.90
67273;DHT22;54190;49.770;9.250;2022-12-18T04:13:31;-8.70;99.90
67273;DHT22;54190;49.770;9.250;2022-12-18T04:16:00;-8.60;99.90
67273;DHT22;54190;49.770;9.250;2022-12-18T04:18:27;-8.50;99.90
67273;DHT22;54190;49.770;9.250;2022-12-18T04:20:53;-8.50;99.90
67273;DHT22;54190;49.770;9.250;2022-12-18T04:23:19;-8.30;99.90
67273;DHT22;54190;49.770;9.250;2022-12-18T04:25:46;-8.30;99.90
67273;DHT22;54190;49.770;9.250;2022-12-18T04:28:17;-8.20;99.90
67273;DHT22;54190;49.770;9.250;2022-12-18T04:30:42;-8.10;99.90
67273;DHT22;54190;49.770;9.250;2022-12-18T04:33:10;-8.00;99.90
67273;DHT22;54190;49.770;9.250;2022-12-18T04:35:37;-7.90;99.90
67273;DHT22;54190;49.770;9.250;2022-12-18T04:38:03;-7.80;99.90
67273;DHT22;54190;49.770;9.250;2022-12-18T04:40:30;-7.60;99.90
67273;DHT22;54190;49.770;9.250;2022-12-18T04:42:56;-7.50;99.90
67273;DHT22;54190;49.770;9.250;2022-12-18T04:45:22;-7.60;99.90
67273;DHT22;54190;49.770;9.250;2022-12-18T04:47:47;-7.50;99.90
67273;DHT22;54190;49.770;9.250;2022-12-18T04:50:13;-7.60;99.90
67273;DHT22;54190;49.770;9.250;2022-12-18T04:52:39;-7.70;99.90
67273;DHT22;54190;49.770;9.250;2022-12-18T04:55:05;-7.60;99.90
67273;DHT22;54190;49.770;9.250;2022-12-18T04:57:30;-7.60;99.90
67273;DHT22;54190;49.770;9.250;2022-12-18T04:59:56;-7.60;99.90
67273;DHT22;54190;49.770;9.250;2022-12-18T05:02:22;-7.50;99.90
67273;DHT22;54190;49.770;9.250;2022-12-18T05:04:47;-7.50;99.90
67273;DHT22;54190;49.770;9.250;2022-12-18T05:07:13;-7.40;99.90
67273;DHT22;54190;49.770;9.250;2022-12-18T05:09:38;-7.40;99.90
67273;DHT22;54190;49.770;9.250;2022-12-18T05:12:04;-7.40;99.90
67273;DHT22;54190;49.770;9.250;2022-12-18T05:14:30;-7.50;99.90
67273;DHT22;54190;49.770;9.250;2022-12-18T05:16:56;-7.40;99.90
67273;DHT22;54190;49.770;9.250;2022-12-18T05:19:22;-7.50;99.90
67273;DHT22;54190;49.770;9.250;2022-12-18T05:21:47;-7.50;99.90
67273;DHT22;54190;49.770;9.250;2022-12-18T05:24:13;-7.50;99.90
67273;DHT22;54190;49.770;9.250;2022-12-18T05:26:39;-7.40;99.90
67273;DHT22;54190;49.770;9.250;2022-12-18T05:29:04;-7.30;99.90
67273;DHT22;54190;49.770;9.250;2022-12-18T05:31:30;-7.20;99.90
67273;DHT22;54190;49.770;9.250;2022-12-18T05:33:56;-7.10;99.90
67273;DHT22;54190;49.770;9.250;2022-12-18T05:36:21;-7.00;99.90
67273;DHT22;54190;49.770;9.250;2022-12-18T05:38:47;-7.00;99.90
67273;DHT22;54190;49.770;9.250;2022-12-18T05:41:13;-7.10;99.90
67273;DHT22;54190;49.770;9.250;2022-12-18T05:43:39;-7.10;99.90
67273;DHT22;54190;49.770;9.250;2022-12-18T05:46:07;-7.00;99.90
67273;DHT22;54190;49.770;9.250;2022-12-18T05:48:33;-7.00;99.90
67273;DHT22;54190;49.770;9.250;2022-12-18T05:51:20;-7.00;99.90
67273;DHT22;54190;49.770;9.250;2022-12-18T05:53:46;-7.00;99.90
67273;DHT22;54190;49.770;9.250;2022-12-18T05:56:19;-7.00;99.90
67273;DHT22;54190;49.770;9.250;2022-12-18T05:58:45;-7.10;99.90
67273;DHT22;54190;49.770;9.250;2022-12-18T06:01:17;-7.10;99.90
67273;DHT22;54190;49.770;9.250;2022-12-18T06:03:43;-7.10;99.90
67273;DHT22;54190;49.770;9.250;2022-12-18T06:06:17;-7.10;99.90
67273;DHT22;54190;49.770;9.250;2022-12-18T06:08:43;-7.10;99.90
67273;DHT22;54190;49.770;9.250;2022-12-18T06:11:09;-7.20;99.90
67273;DHT22;54190;49.770;9.250;2022-12-18T06:13:35;-7.20;99.90
67273;DHT22;54190;49.770;9.250;2022-12-18T06:16:05;-7.20;99.90
67273;DHT22;54190;49.770;9.250;2022-12-18T06:18:32;-7.20;99.90
67273;DHT22;54190;49.770;9.250;2022-12-18T06:20:58;-7.20;99.90
67273;DHT22;54190;49.770;9.250;2022-12-18T06:23:24;-7.20;99.90
67273;DHT22;54190;49.770;9.250;2022-12-18T06:25:50;-7.20;99.90
67273;DHT22;54190;49.770;9.250;2022-12-18T06:28:15;-7.20;99.90
67273;DHT22;54190;49.770;9.250;2022-12-18T06:30:45;-7.20;99.90
67273;DHT22;54190;49.770;9.250;2022-12-18T06:33:11;-7.20;99.90
67273;DHT22;54190;49.770;9.250;2022-12-18T06:35:37;-7.10;99.90
67273;DHT22;54190;49.770;9.250;2022-12-18T06:38:03;-7.10;99.90
67273;DHT22;54190;49.770;9.250;2022-12-18T06:40:29;-7.10;99.90
67273;DHT22;54190;49.770;9.250;2022-12-18T06:42:55;-7.20;99.90
67273;DHT22;54190;49.770;9.250;2022-12-18T06:45:20;-7.20;99.90
67273;DHT22;54190;49.770;9.250;2022-12-18T06:47:46;-7.20;99.90
67273;DHT22;54190;49.770;9.250;2022-12-18T06:50:13;-7.30;99.90
67273;DHT22;54190;49.770;9.250;2022-12-18T06:52:39;-7.30;99.90
67273;DHT22;54190;49.770;9.250;2022-12-18T06:55:06;-7.30;99.90
67273;DHT22;54190;49.770;9.250;2022-12-18T06:57:34;-7.40;99.90
67273;DHT22;54190;49.770;9.250;2022-12-18T07:00:00;-7.40;99.90
67273;DHT22;54190;49.770;9.250;2022-12-18T07:02:25;-7.40;99.90
67273;DHT22;54190;49.770;9.250;2022-12-18T07:04:51;-7.40;99.90
67273;DHT22;54190;49.770;9.250;2022-12-18T07:07:17;-7.40;99.90
67273;DHT22;54190;49.770;9.250;2022-12-18T07:09:43;-7.30;99.90
67273;DHT22;54190;49.770;9.250;2022-12-18T07:12:08;-7.30;99.90
67273;DHT22;54190;49.770;9.250;2022-12-18T07:14:34;-7.40;99.90
67273;DHT22;54190;49.770;9.250;2022-12-18T07:17:00;-7.40;99.90
67273;DHT22;54190;49.770;9.250;2022-12-18T07:19:26;-7.40;99.90
67273;DHT22;54190;49.770;9.250;2022-12-18T07:21:51;-7.40;99.90
67273;DHT22;54190;49.770;9.250;2022-12-18T07:24:17;-7.50;99.90
67273;DHT22;54190;49.770;9.250;2022-12-18T07:26:45;-7.50;99.90
67273;DHT22;54190;49.770;9.250;2022-12-18T07:29:11;-7.50;99.90
67273;DHT22;54190;49.770;9.250;2022-12-18T07:31:37;-7.60;99.90
67273;DHT22;54190;49.770;9.250;2022-12-18T07:34:02;-7.60;99.90
67273;DHT22;54190;49.770;9.250;2022-12-18T07:36:28;-7.60;99.90
67273;DHT22;54190;49.770;9.250;2022-12-18T07:38:54;-7.60;99.90
67273;DHT22;54190;49.770;9.250;2022-12-18T07:41:20;-7.70;99.90
67273;DHT22;54190;49.770;9.250;2022-12-18T07:43:46;-7.80;99.90
67273;DHT22;54190;49.770;9.250;2022-12-18T07:46:13;-7.80;99.90
67273;DHT22;54190;49.770;9.250;2022-12-18T07:48:43;-7.80;99.90
67273;DHT22;54190;49.770;9.250;2022-12-18T07:51:09;-7.70;99.90
67273;DHT22;54190;49.770;9.250;2022-12-18T07:53:37;-7.70;99.90
67273;DHT22;54190;49.770;9.250;2022-12-18T07:56:05;-7.80;99.90
67273;DHT22;54190;49.770;9.250;2022-12-18T07:58:32;-7.80;99.90
67273;DHT22;54190;49.770;9.250;2022-12-18T08:01:09;-7.80;99.90
67273;DHT22;54190;49.770;9.250;2022-12-18T08:03:35;-7.90;99.90
67273;DHT22;54190;49.770;9.250;2022-12-18T08:06:02;-7.80;99.90
67273;DHT22;54190;49.770;9.250;2022-12-18T08:08:29;-8.00;99.90
67273;DHT22;54190;49.770;9.250;2022-12-18T08:10:56;-8.00;99.90
67273;DHT22;54190;49.770;9.250;2022-12-18T08:13:22;-8.10;99.90
67273;DHT22;54190;49.770;9.250;2022-12-18T08:16:02;-8.10;99.90
67273;DHT22;54190;49.770;9.250;2022-12-18T08:18:28;-8.20;99.90
67273;DHT22;54190;49.770;9.250;2022-12-18T08:20:54;-8.20;99.90
67273;DHT22;54190;49.770;9.250;2022-12-18T08:23:20;-8.20;99.90
67273;DHT22;54190;49.770;9.250;2022-12-18T08:25:46;-8.20;99.90
67273;DHT22;54190;49.770;9.250;2022-12-18T08:28:12;-8.20;99.90
67273;DHT22;54190;49.770;9.250;2022-12-18T08:30:38;-8.20;99.90
67273;DHT22;54190;49.770;9.250;2022-12-18T08:33:03;-8.20;99.90
67273;DHT22;54190;49.770;9.250;2022-12-18T08:35:29;-8.10;99.90
67273;DHT22;54190;49.770;9.250;2022-12-18T08:37:55;-8.10;99.90
67273;DHT22;54190;49.770;9.250;2022-12-18T08:40:20;-8.00;99.90
67273;DHT22;54190;49.770;9.250;2022-12-18T08:42:46;-8.00;99.90
67273;DHT22;54190;49.770;9.250;2022-12-18T08:45:32;-7.90;99.90
67273;DHT22;54190;49.770;9.250;2022-12-18T08:47:59;-8.00;99.90
67273;DHT22;54190;49.770;9.250;2022-12-18T08:50:24;-7.90;99.90
67273;DHT22;54190;49.770;9.250;2022-12-18T08:52:50;-7.90;99.90
67273;DHT22;54190;49.770;9.250;2022-12-18T08:55:15;-7.90;99.90
67273;DHT22;54190;49.770;9.250;2022-12-18T08:57:42;-7.90;99.90
67273;DHT22;54190;49.770;9.250;2022-12-18T09:00:09;-7.80;99.90
67273;DHT22;54190;49.770;9.250;2022-12-18T09:02:35;-7.70;99.90
67273;DHT22;54190;49.770;9.250;2022-12-18T09:05:01;-7.60;99.90
67273;DHT22;54190;49.770;9.250;2022-12-18T09:07:26;-7.60;99.90
67273;DHT22;54190;49.770;9.250;2022-12-18T09:09:52;-7.70;99.90
67273;DHT22;54190;49.770;9.250;2022-12-18T09:12:18;-7.80;99.90
67273;DHT22;54190;49.770;9.250;2022-12-18T09:14:43;-7.70;99.90
67273;DHT22;54190;49.770;9.250;2022-12-18T09:17:09;-7.70;99.90
67273;DHT22;54190;49.770;9.250;2022-12-18T09:19:35;-7.50;99.90
67273;DHT22;54190;49.770;9.250;2022-12-18T09:22:00;-7.40;99.90
67273;DHT22;54190;49.770;9.250;2022-12-18T09:24:26;-7.50;99.90
67273;DHT22;54190;49.770;9.250;2022-12-18T09:26:54;-7.40;99.90
67273;DHT22;54190;49.770;9.250;2022-12-18T09:29:20;-7.40;99.90
67273;DHT22;54190;49.770;9.250;2022-12-18T09:31:47;-7.40;99.90
67273;DHT22;54190;49.770;9.250;2022-12-18T09:34:12;-7.20;99.90
67273;DHT22;54190;49.770;9.250;2022-12-18T09:36:38;-7.30;99.90
67273;DHT22;54190;49.770;9.250;2022-12-18T09:39:04;-7.20;99.90
67273;DHT22;54190;49.770;9.250;2022-12-18T09:42:00;-7.30;99.90
67273;DHT22;54190;49.770;9.250;2022-12-18T09:44:49;-7.40;99.90
67273;DHT22;54190;49.770;9.250;2022-12-18T09:47:32;-7.40;99.90
67273;DHT22;54190;49.770;9.250;2022-12-18T09:50:28;-7.30;99.90
67273;DHT22;54190;49.770;9.250;2022-12-18T09:52:56;-7.30;99.90
67273;DHT22;54190;49.770;9.250;2022-12-18T09:55:28;-7.30;99.90
67273;DHT22;54190;49.770;9.250;2022-12-18T10:00:43;-7.30;99.90
67273;DHT22;54190;49.770;9.250;2022-12-18T10:03:10;-7.20;99.90
67273;DHT22;54190;49.770;9.250;2022-12-18T10:05:59;-7.10;99.90
67273;DHT22;54190;49.770;9.250;2022-12-18T10:08:40;-7.00;99.90
67273;DHT22;54190;49.770;9.250;2022-12-18T10:17:14;-6.80;99.90
67273;DHT22;54190;49.770;9.250;2022-12-18T10:20:24;-6.70;99.90
67273;DHT22;54190;49.770;9.250;2022-12-18T10:23:15;-6.70;99.90
67273;DHT22;54190;49.770;9.250;2022-12-18T10:25:59;-6.70;99.90
67273;DHT22;54190;49.770;9.250;2022-12-18T10:28:26;-6.60;99.90
67273;DHT22;54190;49.770;9.250;2022-12-18T10:30:54;-6.60;99.90
67273;DHT22;54190;49.770;9.250;2022-12-18T10:33:23;-6.50;99.90
67273;DHT22;54190;49.770;9.250;2022-12-18T10:35:52;-6.50;99.90
67273;DHT22;54190;49.770;9.250;2022-12-18T10:40:59;-6.40;99.90
67273;DHT22;54190;49.770;9.250;2022-12-18T10:43:27;-6.30;99.90
67273;DHT22;54190;49.770;9.250;2022-12-18T10:51:32;-6.10;99.90
67273;DHT22;54190;49.770;9.250;2022-12-18T10:54:14;-6.00;99.90
67273;DHT22;54190;49.770;9.250;2022-12-18T10:56:41;-6.10;99.90
67273;DHT22;54190;49.770;9.250;2022-12-18T10:59:10;-6.00;99.90
67273;DHT22;54190;49.770;9.250;2022-12-18T11:01:56;-5.90;99.90
67273;DHT22;54190;49.770;9.250;2022-12-18T11:04:27;-5.90;99.90
67273;DHT22;54190;49.770;9.250;2022-12-18T11:06:59;-5.90;99.90
67273;DHT22;54190;49.770;9.250;2022-12-18T11:09:27;-5.90;99.90
67273;DHT22;54190;49.770;9.250;2022-12-18T11:11:55;-5.80;99.90
67273;DHT22;54190;49.770;9.250;2022-12-18T11:14:34;-5.80;99.90
67273;DHT22;54190;49.770;9.250;2022-12-18T11:17:00;-5.70;99.90
67273;DHT22;54190;49.770;9.250;2022-12-18T11:21:52;-5.60;99.90
67273;DHT22;54190;49.770;9.250;2022-12-18T11:26:58;-5.60;99.90
67273;DHT22;54190;49.770;9.250;2022-12-18T11:29:39;-5.50;99.90
67273;DHT22;54190;49.770;9.250;2022-12-18T11:34:42;-5.30;99.90
67273;DHT22;54190;49.770;9.250;2022-12-18T11:37:12;-5.30;99.90
67273;DHT22;54190;49.770;9.250;2022-12-18T11:40:11;-5.30;99.90
67273;DHT22;54190;49.770;9.250;2022-12-18T11:42:54;-5.20;99.90
67273;DHT22;54190;49.770;9.250;2022-12-18T11:45:34;-5.10;99.90
67273;DHT22;54190;49.770;9.250;2022-12-18T11:48:28;-5.10;99.90
67273;DHT22;54190;49.770;9.250;2022-12-18T11:50:57;-5.00;99.90
67273;DHT22;54190;49.770;9.250;2022-12-18T11:53:25;-4.90;99.90
67273;DHT22;54190;49.770;9.250;2022-12-18T12:01:47;-4.80;99.90
67273;DHT22;54190;49.770;9.250;2022-12-18T12:10:06;-4.70;99.90
67273;DHT22;54190;49.770;9.250;2022-12-18T12:21:06;-4.50;99.90
67273;DHT22;54190;49.770;9.250;2022-12-18T12:31:33;-4.30;99.90
67273;DHT22;54190;49.770;9.250;2022-12-18T12:39:41;-4.20;99.90
67273;DHT22;54190;49.770;9.250;2022-12-18T12:42:33;-4.20;99.90
67273;DHT22;54190;49.770;9.250;2022-12-18T12:45:28;-4.20;99.90
67273;DHT22;54190;49.770;9.250;2022-12-18T12:47:57;-4.20;99.90
67273;DHT22;54190;49.770;9.250;2022-12-18T12:50:24;-4.20;99.90
67273;DHT22;54190;49.770;9.250;2022-12-18T12:52:55;-4.10;99.90
67273;DHT22;54190;49.770;9.250;2022-12-18T12:55:27;-4.10;99.90
67273;DHT22;54190;49.770;9.250;2022-12-18T12:58:02;-4.00;99.90
67273;DHT22;54190;49.770;9.250;2022-12-18T13:00:39;-4.00;99.90
67273;DHT22;54190;49.770;9.250;2022-12-18T13:03:36;-4.00;99.90
67273;DHT22;54190;49.770;9.250;2022-12-18T13:09:10;-3.90;99.90
67273;DHT22;54190;49.770;9.250;2022-12-18T13:11:41;-3.90;99.90
67273;DHT22;54190;49.770;9.250;2022-12-18T13:14:35;-3.80;99.90
67273;DHT22;54190;49.770;9.250;2022-12-18T13:19:52;-3.70;99.90
67273;DHT22;54190;49.770;9.250;2022-12-18T13:22:45;-3.70;99.90
67273;DHT22;54190;49.770;9.250;2022-12-18T13:25:37;-3.70;99.90
67273;DHT22;54190;49.770;9.250;2022-12-18T13:30:44;-3.70;99.90
67273;DHT22;54190;49.770;9.250;2022-12-18T13:38:34;-3.70;99.90
67273;DHT22;54190;49.770;9.250;2022-12-18T13:46:00;-3.40;99.90
67273;DHT22;54190;49.770;9.250;2022-12-18T13:48:29;-3.40;99.90
67273;DHT22;54190;49.770;9.250;2022-12-18T13:51:09;-3.40;99.90
67273;DHT22;54190;49.770;9.250;2022-12-18T13:53:43;-3.40;99.90
67273;DHT22;54190;49.770;9.250;2022-12-18T13:56:18;-3.40;99.90
67273;DHT22;54190;49.770;9.250;2022-12-18T13:58:47;-3.40;99.90
67273;DHT22;54190;49.770;9.250;2022-12-18T14:01:28;-3.30;99.90
67273;DHT22;54190;49.770;9.250;2022-12-18T14:04:09;-3.30;99.90
67273;DHT22;54190;49.770;9.250;2022-12-18T14:06:35;-3.30;99.90
67273;DHT22;54190;49.770;9.250;2022-12-18T14:09:02;-3.30;99.90
67273;DHT22;54190;49.770;9.250;2022-12-18T14:11:28;-3.30;99.90
67273;DHT22;54190;49.770;9.250;2022-12-18T14:13:54;-3.30;99.90
67273;DHT22;54190;49.770;9.250;2022-12-18T14:16:20;-3.20;99.90
67273;DHT22;54190;49.770;9.250;2022-12-18T14:18:57;-3.30;99.90
67273;DHT22;54190;49.770;9.250;2022-12-18T14:21:27;-3.30;99.90
67273;DHT22;54190;49.770;9.250;2022-12-18T14:24:16;-3.30;99.90
67273;DHT22;54190;49.770;9.250;2022-12-18T14:26:43;-3.30;99.90
67273;DHT22;54190;49.770;9.250;2022-12-18T14:29:28;-3.30;99.90
67273;DHT22;54190;49.770;9.250;2022-12-18T14:32:09;-3.30;99.90
67273;DHT22;54190;49.770;9.250;2022-12-18T14:34:35;-3.30;99.90
67273;DHT22;54190;49.770;9.250;2022-12-18T14:37:00;-3.30;99.90
67273;DHT22;54190;49.770;9.250;2022-12-18T14:39:26;-3.30;99.90
67273;DHT22;54190;49.770;9.250;2022-12-18T14:41:52;-3.30;99.90
67273;DHT22;54190;49.770;9.250;2022-12-18T14:44:18;-3.20;99.90
67273;DHT22;54190;49.770;9.250;2022-12-18T14:46:45;-3.20;99.90
67273;DHT22;54190;49.770;9.250;2022-12-18T14:49:29;-3.20;99.90
67273;DHT22;54190;49.770;9.250;2022-12-18T14:51:57;-3.20;99.90
67273;DHT22;54190;49.770;9.250;2022-12-18T14:54:24;-3.20;99.90
67273;DHT22;54190;49.770;9.250;2022-12-18T14:57:02;-3.20;99.90
67273;DHT22;54190;49.770;9.250;2022-12-18T14:59:29;-3.20;99.90
67273;DHT22;54190;49.770;9.250;2022-12-18T15:01:59;-3.20;99.90
67273;DHT22;54190;49.770;9.250;2022-12-18T15:07:19;-3.20;99.90
67273;DHT22;54190;49.770;9.250;2022-12-18T15:10:03;-3.20;99.90
67273;DHT22;54190;49.770;9.250;2022-12-18T15:18:03;-3.30;99.90
67273;DHT22;54190;49.770;9.250;2022-12-18T15:23:34;-3.30;99.90
67273;DHT22;54190;49.770;9.250;2022-12-18T15:28:50;-3.40;99.90
67273;DHT22;54190;49.770;9.250;2022-12-18T15:33:44;-3.30;99.90
67273;DHT22;54190;49.770;9.250;2022-12-18T15:36:13;-3.40;99.90
67273;DHT22;54190;49.770;9.250;2022-12-18T15:38:40;-3.40;99.90
67273;DHT22;54190;49.770;9.250;2022-12-18T15:41:13;-3.40;99.90
67273;DHT22;54190;49.770;9.250;2022-12-18T15:43:39;-3.40;99.90
67273;DHT22;54190;49.770;9.250;2022-12-18T15:46:09;-3.40;99.90
67273;DHT22;54190;49.770;9.250;2022-12-18T15:48:50;-3.50;99.90
67273;DHT22;54190;49.770;9.250;2022-12-18T15:51:35;-3.50;99.90
67273;DHT22;54190;49.770;9.250;2022-12-18T15:54:03;-3.50;99.90
67273;DHT22;54190;49.770;9.250;2022-12-18T15:56:30;-3.40;99.90
67273;DHT22;54190;49.770;9.250;2022-12-18T15:59:16;-3.40;99.90
67273;DHT22;54190;49.770;9.250;2022-12-18T16:01:44;-3.40;99.90
67273;DHT22;54190;49.770;9.250;2022-12-18T16:04:12;-3.40;99.90
67273;DHT22;54190;49.770;9.250;2022-12-18T16:06:38;-3.40;99.90
67273;DHT22;54190;49.770;9.250;2022-12-18T16:09:04;-3.40;99.90
67273;DHT22;54190;49.770;9.250;2022-12-18T16:11:32;-3.40;99.90
67273;DHT22;54190;49.770;9.250;2022-12-18T16:14:05;-3.40;99.90
67273;DHT22;54190;49.770;9.250;2022-12-18T16:16:31;-3.40;99.90
67273;DHT22;54190;49.770;9.250;2022-12-18T16:18:57;-3.40;99.90
67273;DHT22;54190;49.770;9.250;2022-12-18T16:21:22;-3.40;99.90
67273;DHT22;54190;49.770;9.250;2022-12-18T16:23:48;-3.40;99.90
67273;DHT22;54190;49.770;9.250;2022-12-18T16:26:13;-3.40;99.90
67273;DHT22;54190;49.770;9.250;2022-12-18T16:28:39;-3.40;99.90
67273;DHT22;54190;49.770;9.250;2022-12-18T16:31:05;-3.40;99.90
67273;DHT22;54190;49.770;9.250;2022-12-18T16:33:30;-3.40;99.90
67273;DHT22;54190;49.770;9.250;2022-12-18T16:35:56;-3.40;99.90
67273;DHT22;54190;49.770;9.250;2022-12-18T16:38:22;-3.40;99.90
67273;DHT22;54190;49.770;9.250;2022-12-18T16:40:47;-3.40;99.90
67273;DHT22;54190;49.770;9.250;2022-12-18T16:43:31;-3.40;99.90
67273;DHT22;54190;49.770;9.250;2022-12-18T16:45:58;-3.40;99.90
67273;DHT22;54190;49.770;9.250;2022-12-18T16:48:24;-3.50;99.90
67273;DHT22;54190;49.770;9.250;2022-12-18T16:50:50;-3.40;99.90
67273;DHT22;54190;49.770;9.250;2022-12-18T16:53:24;-3.50;99.90
67273;DHT22;54190;49.770;9.250;2022-12-18T16:55:54;-3.40;99.90
67273;DHT22;54190;49.770;9.250;2022-12-18T16:58:20;-3.40;99.90
67273;DHT22;54190;49.770;9.250;2022-12-18T17:00:46;-3.40;99.90
67273;DHT22;54190;49.770;9.250;2022-12-18T17:03:11;-3.40;99.90
67273;DHT22;54190;49.770;9.250;2022-12-18T17:05:37;-3.50;99.90
67273;DHT22;54190;49.770;9.250;2022-12-18T17:08:03;-3.50;99.90
67273;DHT22;54190;49.770;9.250;2022-12-18T17:10:28;-3.50;99.90
67273;DHT22;54190;49.770;9.250;2022-12-18T17:12:54;-3.40;99.90
67273;DHT22;54190;49.770;9.250;2022-12-18T17:15:20;-3.50;99.90
67273;DHT22;54190;49.770;9.250;2022-12-18T17:17:46;-3.50;99.90
67273;DHT22;54190;49.770;9.250;2022-12-18T17:20:11;-3.50;99.90
67273;DHT22;54190;49.770;9.250;2022-12-18T17:22:37;-3.50;99.90
67273;DHT22;54190;49.770;9.250;2022-12-18T17:25:03;-3.50;99.90
67273;DHT22;54190;49.770;9.250;2022-12-18T17:27:28;-3.50;99.90
67273;DHT22;54190;49.770;9.250;2022-12-18T17:29:54;-3.40;99.90
67273;DHT22;54190;49.770;9.250;2022-12-18T17:32:20;-3.50;99.90
67273;DHT22;54190;49.770;9.250;2022-12-18T17:34:45;-3.40;99.90
67273;DHT22;54190;49.770;9.250;2022-12-18T17:37:11;-3.50;99.90
67273;DHT22;54190;49.770;9.250;2022-12-18T17:39:38;-3.50;99.90